sensor_id;sensor_type;location;lat;lon;timestamp;P1;durP1;ratioP1;P2;durP2;ratioP2
11642;SDS011;5877;50.930;6.918;2023-02-15T00:00:04;28.33;;;18.23;;
11642;SDS011;5877;50.930;6.918;2023-02-15T00:05:07;24.87;;;17.17;;
11642;SDS011;5877;50.930;6.918;2023-02-15T00:10:00;27.50;;;17.93;;
11642;SDS011;5877;50.930;6.918;2023-02-15T00:14:53;30.60;;;19.00;;
11642;SDS011;5877;50.930;6.918;2023-02-15T00:19:49;27.60;;;18.60;;
11642;SDS011;5877;50.930;6.918;2023-02-15T00:24:42;26.43;;;17.63;;
11642;SDS011;5877;50.930;6.918;2023-02-15T00:29:37;27.57;;;18.53;;
11642;SDS011;5877;50.930;6.918;2023-02-15T00:34:30;28.67;;;18.53;;
11642;SDS011;5877;50.930;6.918;2023-02-15T01:02:50;30.70;;;19.77;;
11642;SDS011;5877;50.930;6.918;2023-02-15T01:07:44;26.83;;;17.87;;
11642;SDS011;5877;50.930;6.918;2023-02-15T01:12:37;25.97;;;17.83;;
11642;SDS011;5877;50.930;6.918;2023-02-15T01:17:30;29.23;;;18.97;;
11642;SDS011;5877;50.930;6.918;2023-02-15T01:22:23;29.47;;;18.73;;
11642;SDS011;5877;50.930;6.918;2023-02-15T01:27:18;30.70;;;18.23;;
11642;SDS011;5877;50.930;6.918;2023-02-15T01:32:13;25.73;;;17.57;;
11642;SDS011;5877;50.930;6.918;2023-02-15T01:37:07;26.57;;;18.07;;
11642;SDS011;5877;50.930;6.918;2023-02-15T01:42:01;29.30;;;17.53;;
11642;SDS011;5877;50.930;6.918;2023-02-15T01:47:02;26.47;;;18.23;;
11642;SDS011;5877;50.930;6.918;2023-02-15T01:51:55;29.30;;;18.00;;
11642;SDS011;5877;50.930;6.918;2023-02-15T01:56:49;27.20;;;17.90;;
11642;SDS011;5877;50.930;6.918;2023-02-15T02:01:41;26.77;;;17.27;;
11642;SDS011;5877;50.930;6.918;2023-02-15T02:06:34;27.43;;;18.03;;
11642;SDS011;5877;50.930;6.918;2023-02-15T02:11:30;27.47;;;17.63;;
11642;SDS011;5877;50.930;6.918;2023-02-15T02:31:51;25.70;;;15.90;;
11642;SDS011;5877;50.930;6.918;2023-02-15T02:37:16;27.47;;;17.13;;
11642;SDS011;5877;50.930;6.918;2023-02-15T02:42:42;27.20;;;17.00;;
11642;SDS011;5877;50.930;6.918;2023-02-15T02:47:36;26.80;;;16.87;;
11642;SDS011;5877;50.930;6.918;2023-02-15T02:52:46;25.60;;;17.00;;
11642;SDS011;5877;50.930;6.918;2023-02-15T02:57:42;26.30;;;16.77;;
11642;SDS011;5877;50.930;6.918;2023-02-15T03:02:41;25.87;;;16.00;;
11642;SDS011;5877;50.930;6.918;2023-02-15T03:07:37;23.90;;;15.90;;
11642;SDS011;5877;50.930;6.918;2023-02-15T03:12:32;26.77;;;16.93;;
11642;SDS011;5877;50.930;6.918;2023-02-15T03:17:29;26.23;;;16.53;;
11642;SDS011;5877;50.930;6.918;2023-02-15T03:22:26;24.83;;;16.40;;
11642;SDS011;5877;50.930;6.918;2023-02-15T03:27:31;24.63;;;15.73;;
11642;SDS011;5877;50.930;6.918;2023-02-15T03:32:29;27.03;;;16.00;;
11642;SDS011;5877;50.930;6.918;2023-02-15T03:42:32;23.63;;;15.53;;
11642;SDS011;5877;50.930;6.918;2023-02-15T03:47:30;25.50;;;16.33;;
11642;SDS011;5877;50.930;6.918;2023-02-15T03:52:25;24.33;;;15.23;;
11642;SDS011;5877;50.930;6.918;2023-02-15T04:03:12;26.23;;;16.63;;
11642;SDS011;5877;50.930;6.918;2023-02-15T04:08:07;26.20;;;15.47;;
11642;SDS011;5877;50.930;6.918;2023-02-15T04:13:00;23.77;;;15.23;;
11642;SDS011;5877;50.930;6.918;2023-02-15T04:17:52;23.90;;;15.43;;
11642;SDS011;5877;50.930;6.918;2023-02-15T04:22:45;25.87;;;15.40;;
11642;SDS011;5877;50.930;6.918;2023-02-15T04:27:56;26.00;;;16.63;;
11642;SDS011;5877;50.930;6.918;2023-02-15T04:32:48;25.63;;;16.07;;
11642;SDS011;5877;50.930;6.918;2023-02-15T04:37:41;27.50;;;16.97;;
11642;SDS011;5877;50.930;6.918;2023-02-15T04:42:34;23.23;;;15.37;;
11642;SDS011;5877;50.930;6.918;2023-02-15T04:47:26;26.87;;;15.63;;
11642;SDS011;5877;50.930;6.918;2023-02-15T04:52:19;23.63;;;15.80;;
11642;SDS011;5877;50.930;6.918;2023-02-15T04:57:14;25.27;;;16.03;;
11642;SDS011;5877;50.930;6.918;2023-02-15T05:02:07;23.83;;;14.47;;
11642;SDS011;5877;50.930;6.918;2023-02-15T05:07:03;22.87;;;14.57;;
11642;SDS011;5877;50.930;6.918;2023-02-15T05:11:56;23.80;;;14.97;;
11642;SDS011;5877;50.930;6.918;2023-02-15T05:16:48;23.73;;;14.40;;
11642;SDS011;5877;50.930;6.918;2023-02-15T05:21:40;25.87;;;15.53;;
11642;SDS011;5877;50.930;6.918;2023-02-15T05:26:32;21.57;;;14.83;;
11642;SDS011;5877;50.930;6.918;2023-02-15T05:31:43;23.27;;;14.93;;
11642;SDS011;5877;50.930;6.918;2023-02-15T05:36:39;22.07;;;14.03;;
11642;SDS011;5877;50.930;6.918;2023-02-15T05:41:32;23.93;;;15.17;;
11642;SDS011;5877;50.930;6.918;2023-02-15T05:46:26;22.67;;;13.90;;
11642;SDS011;5877;50.930;6.918;2023-02-15T05:51:18;21.53;;;13.97;;
11642;SDS011;5877;50.930;6.918;2023-02-15T05:56:12;21.10;;;13.77;;
11642;SDS011;5877;50.930;6.918;2023-02-15T06:01:10;23.50;;;14.47;;
11642;SDS011;5877;50.930;6.918;2023-02-15T06:06:04;22.80;;;13.87;;
11642;SDS011;5877;50.930;6.918;2023-02-15T06:10:58;22.33;;;13.80;;
11642;SDS011;5877;50.930;6.918;2023-02-15T06:15:51;20.70;;;13.10;;
11642;SDS011;5877;50.930;6.918;2023-02-15T06:27:15;20.70;;;13.17;;
11642;SDS011;5877;50.930;6.918;2023-02-15T06:32:08;20.90;;;13.07;;
11642;SDS011;5877;50.930;6.918;2023-02-15T06:37:01;20.10;;;13.77;;
11642;SDS011;5877;50.930;6.918;2023-02-15T06:41:53;22.17;;;14.17;;
11642;SDS011;5877;50.930;6.918;2023-02-15T06:46:46;20.63;;;13.23;;
11642;SDS011;5877;50.930;6.918;2023-02-15T06:51:38;20.53;;;13.60;;
11642;SDS011;5877;50.930;6.918;2023-02-15T06:56:31;20.63;;;12.87;;
11642;SDS011;5877;50.930;6.918;2023-02-15T07:01:23;20.53;;;13.73;;
11642;SDS011;5877;50.930;6.918;2023-02-15T07:06:16;21.30;;;13.27;;
11642;SDS011;5877;50.930;6.918;2023-02-15T07:11:08;22.53;;;14.70;;
11642;SDS011;5877;50.930;6.918;2023-02-15T07:16:20;18.93;;;12.30;;
11642;SDS011;5877;50.930;6.918;2023-02-15T07:21:12;18.90;;;12.13;;
11642;SDS011;5877;50.930;6.918;2023-02-15T07:26:05;21.33;;;12.83;;
11642;SDS011;5877;50.930;6.918;2023-02-15T07:31:00;19.30;;;12.80;;
11642;SDS011;5877;50.930;6.918;2023-02-15T07:35:55;17.80;;;12.23;;
11642;SDS011;5877;50.930;6.918;2023-02-15T07:40:49;18.87;;;12.30;;
11642;SDS011;5877;50.930;6.918;2023-02-15T07:45:42;19.97;;;13.43;;
11642;SDS011;5877;50.930;6.918;2023-02-15T07:50:35;18.27;;;12.23;;
11642;SDS011;5877;50.930;6.918;2023-02-15T07:55:27;14.37;;;10.80;;
11642;SDS011;5877;50.930;6.918;2023-02-15T08:00:20;18.60;;;11.53;;
11642;SDS011;5877;50.930;6.918;2023-02-15T08:05:21;17.50;;;12.60;;
11642;SDS011;5877;50.930;6.918;2023-02-15T08:10:13;16.53;;;12.40;;
11642;SDS011;5877;50.930;6.918;2023-02-15T08:15:25;14.77;;;11.20;;
11642;SDS011;5877;50.930;6.918;2023-02-15T08:20:17;15.83;;;11.30;;
11642;SDS011;5877;50.930;6.918;2023-02-15T08:25:09;13.97;;;10.97;;
11642;SDS011;5877;50.930;6.918;2023-02-15T08:30:01;16.53;;;11.80;;
11642;SDS011;5877;50.930;6.918;2023-02-15T08:34:53;15.57;;;12.00;;
11642;SDS011;5877;50.930;6.918;2023-02-15T08:39:44;15.93;;;11.63;;
11642;SDS011;5877;50.930;6.918;2023-02-15T08:44:37;17.87;;;11.80;;
11642;SDS011;5877;50.930;6.918;2023-02-15T08:49:29;12.90;;;10.97;;
11642;SDS011;5877;50.930;6.918;2023-02-15T08:54:21;14.67;;;11.73;;
11642;SDS011;5877;50.930;6.918;2023-02-15T08:59:19;16.40;;;11.70;;
11642;SDS011;5877;50.930;6.918;2023-02-15T09:04:13;14.57;;;11.87;;
11642;SDS011;5877;50.930;6.918;2023-02-15T09:09:07;17.93;;;12.07;;
11642;SDS011;5877;50.930;6.918;2023-02-15T09:14:01;13.10;;;10.87;;
11642;SDS011;5877;50.930;6.918;2023-02-15T09:18:57;14.93;;;12.07;;
11642;SDS011;5877;50.930;6.918;2023-02-15T09:23:50;17.07;;;11.13;;
11642;SDS011;5877;50.930;6.918;2023-02-15T09:28:50;14.97;;;11.33;;
11642;SDS011;5877;50.930;6.918;2023-02-15T09:33:44;16.93;;;10.83;;
11642;SDS011;5877;50.930;6.918;2023-02-15T09:38:37;16.57;;;10.83;;
11642;SDS011;5877;50.930;6.918;2023-02-15T09:44:17;16.03;;;10.93;;
11642;SDS011;5877;50.930;6.918;2023-02-15T09:48:53;12.70;;;10.73;;
11642;SDS011;5877;50.930;6.918;2023-02-15T09:54:01;12.60;;;10.70;;
11642;SDS011;5877;50.930;6.918;2023-02-15T09:59:18;14.93;;;10.73;;
11642;SDS011;5877;50.930;6.918;2023-02-15T10:09:27;14.03;;;10.53;;
11642;SDS011;5877;50.930;6.918;2023-02-15T10:14:33;12.10;;;10.03;;
11642;SDS011;5877;50.930;6.918;2023-02-15T10:19:37;16.30;;;11.30;;
11642;SDS011;5877;50.930;6.918;2023-02-15T10:30:27;14.07;;;9.97;;
11642;SDS011;5877;50.930;6.918;2023-02-15T10:41:12;16.60;;;10.90;;
11642;SDS011;5877;50.930;6.918;2023-02-15T11:01:55;16.80;;;10.83;;
11642;SDS011;5877;50.930;6.918;2023-02-15T11:06:56;14.97;;;11.50;;
11642;SDS011;5877;50.930;6.918;2023-02-15T11:11:52;14.83;;;11.03;;
11642;SDS011;5877;50.930;6.918;2023-02-15T11:16:52;15.87;;;11.30;;
11642;SDS011;5877;50.930;6.918;2023-02-15T11:21:50;15.67;;;11.37;;
11642;SDS011;5877;50.930;6.918;2023-02-15T11:26:50;16.00;;;11.87;;
11642;SDS011;5877;50.930;6.918;2023-02-15T11:31:53;13.70;;;10.67;;
11642;SDS011;5877;50.930;6.918;2023-02-15T11:36:48;15.20;;;11.30;;
11642;SDS011;5877;50.930;6.918;2023-02-15T11:42:04;14.73;;;10.97;;
11642;SDS011;5877;50.930;6.918;2023-02-15T11:47:11;16.17;;;11.23;;
11642;SDS011;5877;50.930;6.918;2023-02-15T11:52:06;13.77;;;11.37;;
11642;SDS011;5877;50.930;6.918;2023-02-15T12:02:15;13.90;;;11.23;;
11642;SDS011;5877;50.930;6.918;2023-02-15T12:12:26;13.63;;;10.80;;
11642;SDS011;5877;50.930;6.918;2023-02-15T12:17:20;14.70;;;10.60;;
11642;SDS011;5877;50.930;6.918;2023-02-15T12:22:22;15.90;;;11.60;;
11642;SDS011;5877;50.930;6.918;2023-02-15T12:27:20;14.10;;;11.10;;
11642;SDS011;5877;50.930;6.918;2023-02-15T12:32:33;14.13;;;11.47;;
11642;SDS011;5877;50.930;6.918;2023-02-15T12:37:28;15.17;;;11.23;;
11642;SDS011;5877;50.930;6.918;2023-02-15T12:42:24;15.17;;;11.53;;
11642;SDS011;5877;50.930;6.918;2023-02-15T12:47:18;15.07;;;11.37;;
11642;SDS011;5877;50.930;6.918;2023-02-15T12:57:14;14.43;;;11.17;;
11642;SDS011;5877;50.930;6.918;2023-02-15T13:02:51;11.83;;;10.17;;
11642;SDS011;5877;50.930;6.918;2023-02-15T13:07:37;11.73;;;10.47;;
11642;SDS011;5877;50.930;6.918;2023-02-15T13:12:30;13.27;;;10.47;;
11642;SDS011;5877;50.930;6.918;2023-02-15T13:17:25;13.40;;;10.80;;
11642;SDS011;5877;50.930;6.918;2023-02-15T13:22:22;15.37;;;10.90;;
11642;SDS011;5877;50.930;6.918;2023-02-15T13:27:19;13.73;;;11.47;;
11642;SDS011;5877;50.930;6.918;2023-02-15T13:42:27;13.53;;;10.50;;
11642;SDS011;5877;50.930;6.918;2023-02-15T13:52:51;13.53;;;11.70;;
11642;SDS011;5877;50.930;6.918;2023-02-15T13:58:10;15.27;;;10.80;;
11642;SDS011;5877;50.930;6.918;2023-02-15T14:19:21;15.93;;;10.97;;
11642;SDS011;5877;50.930;6.918;2023-02-15T14:24:26;13.57;;;10.23;;
11642;SDS011;5877;50.930;6.918;2023-02-15T14:34:36;16.07;;;11.47;;
11642;SDS011;5877;50.930;6.918;2023-02-15T14:44:59;15.00;;;11.27;;
11642;SDS011;5877;50.930;6.918;2023-02-15T14:49:58;15.07;;;10.57;;
11642;SDS011;5877;50.930;6.918;2023-02-15T14:59:58;17.67;;;10.93;;
11642;SDS011;5877;50.930;6.918;2023-02-15T15:09:43;12.93;;;10.53;;
11642;SDS011;5877;50.930;6.918;2023-02-15T15:14:39;14.60;;;10.40;;
11642;SDS011;5877;50.930;6.918;2023-02-15T15:29:41;15.60;;;11.67;;
11642;SDS011;5877;50.930;6.918;2023-02-15T15:50:30;16.73;;;11.97;;
11642;SDS011;5877;50.930;6.918;2023-02-15T15:55:23;14.20;;;11.00;;
11642;SDS011;5877;50.930;6.918;2023-02-15T16:05:25;15.87;;;12.30;;
11642;SDS011;5877;50.930;6.918;2023-02-15T16:10:21;15.03;;;11.63;;
11642;SDS011;5877;50.930;6.918;2023-02-15T16:15:20;14.30;;;11.27;;
11642;SDS011;5877;50.930;6.918;2023-02-15T16:20:22;14.83;;;11.83;;
11642;SDS011;5877;50.930;6.918;2023-02-15T16:30:28;15.83;;;11.70;;
11642;SDS011;5877;50.930;6.918;2023-02-15T16:35:27;15.50;;;11.50;;
11642;SDS011;5877;50.930;6.918;2023-02-15T16:45:16;17.20;;;12.50;;
11642;SDS011;5877;50.930;6.918;2023-02-15T16:50:18;17.63;;;12.37;;
11642;SDS011;5877;50.930;6.918;2023-02-15T16:55:27;14.67;;;11.43;;
11642;SDS011;5877;50.930;6.918;2023-02-15T17:00:24;14.77;;;12.30;;
11642;SDS011;5877;50.930;6.918;2023-02-15T17:05:19;17.43;;;12.17;;
11642;SDS011;5877;50.930;6.918;2023-02-15T17:20:55;16.90;;;12.07;;
11642;SDS011;5877;50.930;6.918;2023-02-15T17:25:49;16.77;;;11.23;;
11642;SDS011;5877;50.930;6.918;2023-02-15T17:30:43;15.53;;;11.17;;
11642;SDS011;5877;50.930;6.918;2023-02-15T17:35:37;17.93;;;11.77;;
11642;SDS011;5877;50.930;6.918;2023-02-15T17:40:31;16.37;;;11.70;;
11642;SDS011;5877;50.930;6.918;2023-02-15T17:45:25;14.80;;;11.30;;
11642;SDS011;5877;50.930;6.918;2023-02-15T17:50:25;15.33;;;11.90;;
11642;SDS011;5877;50.930;6.918;2023-02-15T17:55:19;15.37;;;11.03;;
11642;SDS011;5877;50.930;6.918;2023-02-15T18:00:34;16.90;;;11.63;;
11642;SDS011;5877;50.930;6.918;2023-02-15T18:05:47;14.87;;;10.93;;
11642;SDS011;5877;50.930;6.918;2023-02-15T18:10:58;14.37;;;11.10;;
11642;SDS011;5877;50.930;6.918;2023-02-15T18:16:14;16.30;;;12.00;;
11642;SDS011;5877;50.930;6.918;2023-02-15T18:21:10;17.57;;;11.37;;
11642;SDS011;5877;50.930;6.918;2023-02-15T18:26:02;14.43;;;11.40;;
11642;SDS011;5877;50.930;6.918;2023-02-15T18:30:54;16.20;;;11.67;;
11642;SDS011;5877;50.930;6.918;2023-02-15T18:35:46;15.70;;;11.93;;
11642;SDS011;5877;50.930;6.918;2023-02-15T18:40:41;15.93;;;12.30;;
11642;SDS011;5877;50.930;6.918;2023-02-15T18:45:33;16.77;;;11.50;;
11642;SDS011;5877;50.930;6.918;2023-02-15T18:50:27;16.37;;;11.83;;
11642;SDS011;5877;50.930;6.918;2023-02-15T18:55:24;16.13;;;11.87;;
11642;SDS011;5877;50.930;6.918;2023-02-15T19:00:24;18.63;;;12.10;;
11642;SDS011;5877;50.930;6.918;2023-02-15T19:05:23;17.93;;;12.03;;
11642;SDS011;5877;50.930;6.918;2023-02-15T19:10:24;16.53;;;11.93;;
11642;SDS011;5877;50.930;6.918;2023-02-15T19:15:27;17.57;;;12.17;;
11642;SDS011;5877;50.930;6.918;2023-02-15T19:20:28;16.17;;;12.57;;
11642;SDS011;5877;50.930;6.918;2023-02-15T19:25:29;17.87;;;12.80;;
11642;SDS011;5877;50.930;6.918;2023-02-15T19:30:25;23.17;;;13.80;;
11642;SDS011;5877;50.930;6.918;2023-02-15T19:35:21;16.57;;;12.43;;
11642;SDS011;5877;50.930;6.918;2023-02-15T19:40:17;17.57;;;13.13;;
11642;SDS011;5877;50.930;6.918;2023-02-15T19:45:12;17.80;;;13.30;;
11642;SDS011;5877;50.930;6.918;2023-02-15T19:50:06;17.23;;;12.77;;
11642;SDS011;5877;50.930;6.918;2023-02-15T19:54:58;16.13;;;12.57;;
11642;SDS011;5877;50.930;6.918;2023-02-15T19:59:49;18.07;;;12.77;;
11642;SDS011;5877;50.930;6.918;2023-02-15T20:04:41;16.00;;;12.50;;
11642;SDS011;5877;50.930;6.918;2023-02-15T20:09:33;18.23;;;12.50;;
11642;SDS011;5877;50.930;6.918;2023-02-15T20:14:31;17.50;;;12.60;;
11642;SDS011;5877;50.930;6.918;2023-02-15T20:19:22;16.17;;;12.03;;
11642;SDS011;5877;50.930;6.918;2023-02-15T20:24:15;18.33;;;13.30;;
11642;SDS011;5877;50.930;6.918;2023-02-15T20:29:13;19.73;;;12.83;;
11642;SDS011;5877;50.930;6.918;2023-02-15T20:34:06;18.53;;;13.73;;
11642;SDS011;5877;50.930;6.918;2023-02-15T20:38:59;17.87;;;13.23;;
11642;SDS011;5877;50.930;6.918;2023-02-15T20:43:54;17.70;;;12.17;;
11642;SDS011;5877;50.930;6.918;2023-02-15T20:48:46;17.43;;;12.60;;
11642;SDS011;5877;50.930;6.918;2023-02-15T20:53:37;15.97;;;12.67;;
11642;SDS011;5877;50.930;6.918;2023-02-15T20:58:30;17.57;;;13.53;;
11642;SDS011;5877;50.930;6.918;2023-02-15T21:03:23;18.53;;;13.30;;
11642;SDS011;5877;50.930;6.918;2023-02-15T21:08:19;17.43;;;12.40;;
11642;SDS011;5877;50.930;6.918;2023-02-15T21:13:34;20.03;;;14.03;;
11642;SDS011;5877;50.930;6.918;2023-02-15T21:23:28;18.93;;;14.00;;
11642;SDS011;5877;50.930;6.918;2023-02-15T21:28:28;19.53;;;14.30;;
11642;SDS011;5877;50.930;6.918;2023-02-15T21:33:20;19.90;;;13.77;;
11642;SDS011;5877;50.930;6.918;2023-02-15T21:38:16;18.07;;;13.33;;
11642;SDS011;5877;50.930;6.918;2023-02-15T21:43:21;19.30;;;15.20;;
11642;SDS011;5877;50.930;6.918;2023-02-15T21:48:33;20.23;;;13.90;;
11642;SDS011;5877;50.930;6.918;2023-02-15T21:53:32;20.47;;;14.10;;
11642;SDS011;5877;50.930;6.918;2023-02-15T21:58:26;19.13;;;14.17;;
11642;SDS011;5877;50.930;6.918;2023-02-15T22:03:22;19.67;;;14.63;;
11642;SDS011;5877;50.930;6.918;2023-02-15T22:08:15;19.37;;;14.43;;
11642;SDS011;5877;50.930;6.918;2023-02-15T22:13:07;20.87;;;13.73;;
11642;SDS011;5877;50.930;6.918;2023-02-15T22:18:04;22.57;;;15.43;;
11642;SDS011;5877;50.930;6.918;2023-02-15T22:22:56;23.33;;;14.27;;
11642;SDS011;5877;50.930;6.918;2023-02-15T22:27:48;21.87;;;15.33;;
11642;SDS011;5877;50.930;6.918;2023-02-15T22:32:41;18.80;;;14.37;;
11642;SDS011;5877;50.930;6.918;2023-02-15T22:37:33;19.27;;;14.23;;
11642;SDS011;5877;50.930;6.918;2023-02-15T22:42:25;22.70;;;15.03;;
11642;SDS011;5877;50.930;6.918;2023-02-15T22:47:22;18.57;;;13.77;;
11642;SDS011;5877;50.930;6.918;2023-02-15T22:52:16;18.77;;;14.77;;
11642;SDS011;5877;50.930;6.918;2023-02-15T22:57:18;20.37;;;15.20;;
11642;SDS011;5877;50.930;6.918;2023-02-15T23:02:16;23.90;;;15.73;;
11642;SDS011;5877;50.930;6.918;2023-02-15T23:07:11;21.53;;;15.10;;
11642;SDS011;5877;50.930;6.918;2023-02-15T23:12:11;21.60;;;15.93;;
11642;SDS011;5877;50.930;6.918;2023-02-15T23:17:07;24.83;;;16.50;;
11642;SDS011;5877;50.930;6.918;2023-02-15T23:21:59;24.90;;;16.23;;
11642;SDS011;5877;50.930;6.918;2023-02-15T23:26:51;21.20;;;15.30;;
11642;SDS011;5877;50.930;6.918;2023-02-15T23:31:44;22.37;;;16.20;;
11642;SDS011;5877;50.930;6.918;2023-02-15T23:36:38;22.00;;;15.93;;
11642;SDS011;5877;50.930;6.918;2023-02-15T23:41:30;25.40;;;15.97;;
11642;SDS011;5877;50.930;6.918;2023-02-15T23:51:20;20.63;;;15.77;;
11642;SDS011;5877;50.930;6.918;2023-02-15T23:56:14;23.87;;;16.27;;
